Time;durP1;ratioP1;P1;durP2;ratioP2;P2;SDS_P1;SDS_P2;PMS_P1;PMS_P2;Temp;Humidity;BMP_temperature;BMP_pressure;BME280_temperature;BME280_humidity;BME280_pressure;Samples;Min_cycle;Max_cycle;Signal;HPM_P1;HPM_P2
2022/08/17 00:01:07;;;;;;;10.98;7.10;;;;;;;18.84;89.13;99224.32;1798062;77;21057;-71
2022/08/17 00:03:39;;;;;;;10.95;7.33;;;;;;;18.80;89.03;99224.50;1798880;77;21050;-72
2022/08/17 00:06:14;;;;;;;15.50;7.00;;;;;;;18.81;88.84;99215.36;1798349;77;21026;-75
2022/08/17 00:08:44;;;;;;;13.95;7.22;;;;;;;18.87;88.45;99219.80;1811536;77;21023;-74
2022/08/17 00:11:15;;;;;;;8.53;7.47;;;;;;;18.83;88.43;99217.28;1803482;77;21197;-74
2022/08/17 00:13:47;;;;;;;13.50;7.65;;;;;;;18.75;88.54;99214.39;1794789;77;21592;-74
2022/08/17 00:16:30;;;;;;;10.55;6.95;;;;;;;18.77;88.65;99218.20;1758067;79;21111;-73
2022/08/17 00:18:59;;;;;;;11.18;7.22;;;;;;;18.83;88.66;99218.13;1774539;79;22474;-73
2022/08/17 00:21:26;;;;;;;12.40;7.70;;;;;;;18.82;89.04;99218.36;1810177;76;21025;-75
2022/08/17 00:23:53;;;;;;;12.60;6.85;;;;;;;18.78;89.36;99219.31;1808003;76;21128;-75
2022/08/17 00:26:20;;;;;;;9.78;7.17;;;;;;;18.81;89.53;99215.36;1822252;76;21077;-73
2022/08/17 00:28:46;;;;;;;11.03;7.35;;;;;;;18.90;89.41;99223.37;1813002;76;21113;-74
2022/08/17 00:31:13;;;;;;;10.63;7.60;;;;;;;18.88;89.52;99216.06;1821967;76;21050;-72
2022/08/17 00:33:42;;;;;;;10.95;7.08;;;;;;;18.82;89.73;99215.13;1825653;76;21097;-71
2022/08/17 00:36:08;;;;;;;15.95;8.20;;;;;;;18.84;89.75;99217.59;1806009;76;21849;-74
2022/08/17 00:38:37;;;;;;;12.05;7.62;;;;;;;18.92;89.47;99213.73;1813287;76;21049;-74
2022/08/17 00:41:08;;;;;;;10.15;7.30;;;;;;;18.91;89.40;99220.15;1814795;76;21101;-75
2022/08/17 00:43:53;;;;;;;15.80;6.92;;;;;;;18.85;89.25;99221.41;1826616;76;21073;-73
2022/08/17 00:46:25;;;;;;;11.83;7.30;;;;;;;18.86;88.99;99227.59;1812886;76;21053;-72
2022/08/17 00:48:51;;;;;;;10.80;7.22;;;;;;;18.88;88.69;99222.80;1826977;76;21299;-74
2022/08/17 00:51:38;;;;;;;13.32;6.90;;;;;;;18.77;88.74;99224.92;1822944;76;21069;-70
2022/08/17 00:54:16;;;;;;;11.63;7.28;;;;;;;18.70;88.72;99217.48;1819980;76;21017;-72
2022/08/17 00:57:06;;;;;;;11.12;6.62;;;;;;;18.71;88.45;99218.61;1818567;77;21545;-75
2022/08/17 00:59:37;;;;;;;13.10;7.87;;;;;;;18.73;88.30;99210.31;1808503;76;21596;-74
2022/08/17 01:02:05;;;;;;;11.28;7.05;;;;;;;18.66;88.33;99214.47;1820175;76;21094;-75
2022/08/17 01:04:32;;;;;;;13.75;6.67;;;;;;;18.59;88.31;99211.88;1804370;76;21072;-74
2022/08/17 01:06:59;;;;;;;11.10;6.47;;;;;;;18.58;88.12;99208.92;1808087;76;21080;-72
2022/08/17 01:09:25;;;;;;;8.05;6.45;;;;;;;18.61;87.92;99202.24;1824946;76;21136;-72
2022/08/17 01:11:52;;;;;;;14.60;7.10;;;;;;;18.55;87.99;99206.68;1802768;76;21111;-73
2022/08/17 01:14:21;;;;;;;11.28;7.35;;;;;;;18.49;88.08;99200.89;1821870;76;21233;-74
2022/08/17 01:16:49;;;;;;;10.55;6.30;;;;;;;18.44;88.20;99199.42;1817914;76;21247;-72
2022/08/17 01:19:20;;;;;;;10.28;6.60;;;;;;;18.49;88.17;99195.52;1810971;76;21046;-75
2022/08/17 01:22:01;;;;;;;8.73;7.05;;;;;;;18.57;88.17;99196.50;1809145;76;21086;-73
2022/08/17 01:24:28;;;;;;;13.13;7.15;;;;;;;18.56;88.19;99203.45;1824933;76;21088;-72
2022/08/17 01:26:55;;;;;;;15.35;6.37;;;;;;;18.51;88.55;99197.45;1824165;76;21616;-72
2022/08/17 01:29:22;;;;;;;10.30;6.85;;;;;;;18.54;88.77;99198.84;1829646;76;21018;-74
2022/08/17 01:31:52;;;;;;;15.43;6.78;;;;;;;18.59;88.49;99198.43;1823332;76;21054;-74
2022/08/17 01:34:19;;;;;;;8.50;7.55;;;;;;;18.57;88.42;99203.23;1806737;76;21679;-73
2022/08/17 01:36:47;;;;;;;11.43;7.25;;;;;;;18.52;88.48;99197.72;1820684;76;21588;-74
2022/08/17 01:39:31;;;;;;;9.88;6.78;;;;;;;18.46;88.54;99194.63;1812961;76;21843;-73
2022/08/17 01:42:07;;;;;;;10.32;6.20;;;;;;;18.48;88.57;99196.55;1827678;76;21034;-75
2022/08/17 01:44:34;;;;;;;10.03;6.90;;;;;;;18.54;88.67;99192.92;1813618;76;20996;-73
2022/08/17 01:47:01;;;;;;;9.08;6.92;;;;;;;18.49;88.71;99187.45;1823783;76;21055;-73
2022/08/17 01:49:27;;;;;;;10.68;6.33;;;;;;;18.41;88.92;99185.11;1829594;76;21070;-73
2022/08/17 01:51:54;;;;;;;8.78;7.17;;;;;;;18.44;89.15;99188.66;1823384;76;21810;-72
2022/08/17 01:54:21;;;;;;;10.13;6.78;;;;;;;18.51;89.10;99186.69;1829819;76;21090;-73
2022/08/17 01:56:50;;;;;;;9.85;7.28;;;;;;;18.49;88.97;99188.80;1806028;76;21020;-74
2022/08/17 01:59:18;;;;;;;8.13;6.83;;;;;;;18.43;89.19;99187.85;1810586;76;20993;-74
2022/08/17 02:01:44;;;;;;;9.13;6.10;;;;;;;18.46;89.36;99192.75;1816878;76;21055;-76
2022/08/17 02:04:11;;;;;;;9.75;6.70;;;;;;;18.55;89.01;99189.20;1812718;76;21185;-76
2022/08/17 02:06:39;;;;;;;11.88;6.60;;;;;;;18.49;89.09;99183.41;1815496;76;21539;-72
2022/08/17 02:09:06;;;;;;;10.80;7.10;;;;;;;18.43;89.43;99179.78;1823148;76;21094;-72
2022/08/17 02:11:36;;;;;;;10.03;6.87;;;;;;;18.47;89.36;99174.77;1818708;76;21110;-71
2022/08/17 02:14:03;;;;;;;10.75;6.80;;;;;;;18.52;88.98;99180.23;1818290;76;21102;-72
2022/08/17 02:16:32;;;;;;;11.53;7.37;;;;;;;18.46;89.27;99171.77;1832957;78;21243;-73
2022/08/17 02:19:00;;;;;;;11.45;7.37;;;;;;;18.41;89.43;99182.42;1823891;76;21598;-75
2022/08/17 02:21:27;;;;;;;10.43;6.58;;;;;;;18.36;89.50;99180.95;1819799;76;22057;-73
2022/08/17 02:23:53;;;;;;;7.67;6.50;;;;;;;18.42;89.62;99177.32;1823581;76;21019;-74
2022/08/17 02:26:20;;;;;;;9.75;7.28;;;;;;;18.39;89.55;99177.27;1807881;77;21593;-72
2022/08/17 02:28:46;;;;;;;15.95;7.30;;;;;;;18.33;89.88;99174.67;1821913;76;21293;-73
2022/08/17 02:31:13;;;;;;;11.28;5.92;;;;;;;18.29;90.15;99177.01;1826299;76;21574;-73
2022/08/17 02:33:40;;;;;;;10.88;6.95;;;;;;;18.34;89.97;99169.08;1818223;76;21526;-72
2022/08/17 02:36:11;;;;;;;8.65;6.58;;;;;;;18.40;89.86;99172.17;1807469;76;21503;-73
2022/08/17 02:38:36;;;;;;;12.93;7.22;;;;;;;18.39;89.89;99171.89;1799864;76;21092;-73
2022/08/17 02:41:03;;;;;;;10.25;7.60;;;;;;;18.34;90.05;99176.33;1818179;76;21594;-73
2022/08/17 02:43:30;;;;;;;13.55;6.70;;;;;;;18.35;90.10;99172.58;1819844;76;21001;-74
2022/08/17 02:45:56;;;;;;;9.13;6.50;;;;;;;18.39;90.08;99179.95;1817029;76;21071;-74
2022/08/17 02:48:23;;;;;;;10.90;7.12;;;;;;;18.35;90.16;99179.30;1817673;76;21016;-72
2022/08/17 02:50:49;;;;;;;10.58;7.45;;;;;;;18.30;90.49;99190.76;1806797;76;21042;-71
2022/08/17 02:53:16;;;;;;;11.93;7.20;;;;;;;18.34;90.57;99189.77;1819749;76;21197;-73
2022/08/17 02:55:43;;;;;;;11.57;7.28;;;;;;;18.43;90.32;99184.35;1826937;76;21124;-73
2022/08/17 02:58:10;;;;;;;8.90;7.25;;;;;;;18.39;90.40;99183.19;1828467;76;21520;-73
2022/08/17 03:00:40;;;;;;;11.22;6.12;;;;;;;18.35;90.49;99176.10;1820453;76;21092;-73
2022/08/17 03:03:07;;;;;;;10.58;6.47;;;;;;;18.37;90.53;99173.16;1815538;76;21041;-72
2022/08/17 03:05:36;;;;;;;12.65;7.00;;;;;;;18.45;90.42;99169.61;1818137;76;21746;-72
2022/08/17 03:08:03;;;;;;;9.53;7.62;;;;;;;18.43;90.66;99170.37;1810027;76;21046;-74
2022/08/17 03:10:31;;;;;;;11.85;7.05;;;;;;;18.42;90.77;99170.06;1807155;76;21512;-73
2022/08/17 03:12:58;;;;;;;9.90;7.30;;;;;;;18.47;90.56;99172.08;1812748;76;21045;-73
2022/08/17 03:15:29;;;;;;;13.28;7.78;;;;;;;18.56;90.37;99177.40;1824589;76;21073;-73
2022/08/17 03:17:56;;;;;;;10.08;6.97;;;;;;;18.57;90.34;99167.45;1828407;78;21781;-73
2022/08/17 03:20:24;;;;;;;12.98;7.08;;;;;;;18.55;90.56;99164.98;1825556;76;21014;-72
2022/08/17 03:22:53;;;;;;;9.68;7.47;;;;;;;18.58;90.37;99165.88;1813490;76;21046;-72
2022/08/17 03:25:27;;;;;;;11.15;6.90;;;;;;;18.61;89.99;99164.05;1826861;76;21070;-71
2022/08/17 03:27:54;;;;;;;13.00;8.48;;;;;;;18.53;90.10;99167.63;1819721;76;21014;-72
2022/08/17 03:30:21;;;;;;;10.00;6.80;;;;;;;18.44;90.42;99171.18;1823629;75;21127;-72
2022/08/17 03:32:51;;;;;;;11.55;7.33;;;;;;;18.43;90.95;99164.99;1823104;76;21587;-72
2022/08/17 03:35:20;;;;;;;10.58;7.10;;;;;;;18.55;90.99;99166.87;1821029;76;21058;-72
2022/08/17 03:37:47;;;;;;;10.93;7.67;;;;;;;18.55;90.89;99164.18;1820455;76;21104;-71
2022/08/17 03:40:13;;;;;;;10.18;6.87;;;;;;;18.48;91.07;99157.55;1819348;76;21012;-72
2022/08/17 03:42:40;;;;;;;12.47;7.03;;;;;;;18.51;91.24;99157.64;1817861;76;21814;-72
2022/08/17 03:45:11;;;;;;;11.73;7.92;;;;;;;18.61;91.01;99163.23;1819084;76;21096;-72
2022/08/17 03:58:47;;;;;;;14.55;8.23;;;;;;;18.79;90.86;99177.08;1796476;79;21034;-73
2022/08/17 04:01:13;;;;;;;10.80;7.03;;;;;;;18.76;91.00;99175.69;1809086;77;21085;-74
2022/08/17 04:03:40;;;;;;;9.50;7.40;;;;;;;18.81;90.58;99177.19;1804925;77;21018;-74
2022/08/17 04:06:06;;;;;;;11.15;7.15;;;;;;;18.85;90.26;99174.81;1797903;77;21090;-71
2022/08/17 04:08:34;;;;;;;12.63;7.80;;;;;;;18.84;90.73;99175.88;1800583;77;21538;-72
2022/08/17 04:11:00;;;;;;;9.78;7.00;;;;;;;18.84;90.80;99174.00;1812102;77;21042;-71
2022/08/17 04:13:27;;;;;;;11.43;8.08;;;;;;;18.96;90.75;99179.90;1814647;77;21062;-71
2022/08/17 04:15:54;;;;;;;10.35;7.90;;;;;;;19.15;90.71;99167.11;1800406;77;21574;-72
2022/08/17 04:18:21;;;;;;;12.03;9.48;;;;;;;19.24;90.54;99169.19;1795572;77;21568;-74
2022/08/17 04:20:48;;;;;;;10.58;8.53;;;;;;;19.32;90.31;99169.34;1804593;77;21739;-73
2022/08/17 04:23:16;;;;;;;10.05;7.92;;;;;;;19.42;90.26;99172.22;1797161;77;21073;-71
2022/08/17 04:25:47;;;;;;;9.63;8.15;;;;;;;19.59;89.41;99171.47;1812344;77;21046;-73
2022/08/17 04:28:15;;;;;;;12.18;8.18;;;;;;;19.64;89.05;99164.81;1813040;77;21105;-72
2022/08/17 04:30:43;;;;;;;10.38;8.08;;;;;;;19.75;88.87;99157.77;1807263;77;21116;-72
2022/08/17 04:33:18;;;;;;;14.40;8.00;;;;;;;20.00;89.73;99152.00;1809437;77;21126;-73
2022/08/17 04:35:48;;;;;;;11.45;9.23;;;;;;;20.29;88.48;99150.58;1803718;77;21052;-74
2022/08/17 04:38:24;;;;;;;9.30;8.38;;;;;;;20.36;87.72;99143.14;1797033;77;21034;-73
2022/08/17 04:43:37;;;;;;;13.75;9.00;;;;;;;20.37;87.11;99146.91;1804542;77;21529;-74
2022/08/17 04:46:08;;;;;;;11.55;7.65;;;;;;;20.55;86.97;99140.97;1802366;78;21104;-75
2022/08/17 04:48:42;;;;;;;13.58;9.65;;;;;;;20.84;86.48;99146.25;1787079;78;21133;-74
2022/08/17 04:51:21;;;;;;;11.73;8.23;;;;;;;21.04;85.97;99143.02;1797023;78;21116;-74
2022/08/17 04:53:51;;;;;;;11.30;8.98;;;;;;;21.10;84.78;99143.35;1789919;78;21580;-74
2022/08/17 04:56:18;;;;;;;13.80;7.92;;;;;;;21.09;85.06;99137.66;1795715;78;21113;-75
2022/08/17 04:58:47;;;;;;;11.83;8.08;;;;;;;21.16;83.78;99140.98;1808733;78;21257;-74
2022/08/17 05:01:14;;;;;;;9.93;7.85;;;;;;;21.24;83.47;99139.73;1795416;78;21494;-75
2022/08/17 05:03:42;;;;;;;10.45;7.72;;;;;;;21.24;83.69;99141.08;1805716;78;21064;-75
2022/08/17 05:06:08;;;;;;;13.08;7.85;;;;;;;21.25;83.23;99138.64;1806453;78;21568;-72
2022/08/17 05:08:35;;;;;;;8.90;7.80;;;;;;;21.29;82.89;99144.66;1803853;77;21054;-73
2022/08/17 05:11:01;;;;;;;14.60;8.93;;;;;;;21.34;81.96;99148.77;1798912;78;21890;-73
2022/08/17 05:13:32;;;;;;;10.48;8.70;;;;;;;21.29;81.66;99146.00;1804882;78;21589;-73
2022/08/17 05:15:59;;;;;;;11.43;8.40;;;;;;;21.24;81.39;99144.59;1797504;78;21503;-74
2022/08/17 05:18:26;;;;;;;11.28;7.47;;;;;;;21.21;81.33;99151.86;1808162;79;21097;-74
2022/08/17 05:20:53;;;;;;;12.30;8.45;;;;;;;21.26;81.32;99151.90;1796045;77;21105;-72
2022/08/17 05:23:21;;;;;;;11.22;8.48;;;;;;;21.35;81.13;99157.69;1803722;79;21109;-74
2022/08/17 05:25:50;;;;;;;9.65;7.83;;;;;;;21.33;81.37;99148.48;1788657;78;21121;-72
2022/08/17 05:28:18;;;;;;;11.30;8.20;;;;;;;21.34;81.00;99154.17;1786878;79;21066;-73
2022/08/17 05:30:45;;;;;;;11.75;8.15;;;;;;;21.29;80.97;99151.41;1796168;77;21069;-74
2022/08/17 05:33:16;;;;;;;13.08;7.78;;;;;;;21.35;80.86;99155.80;1796127;79;21098;-72
2022/08/17 05:35:46;;;;;;;12.13;8.15;;;;;;;21.44;80.66;99153.50;1815179;77;21514;-73
2022/08/17 05:38:18;;;;;;;11.35;8.75;;;;;;;21.46;80.83;99155.92;1795513;77;21039;-74
2022/08/17 05:40:45;;;;;;;11.17;8.63;;;;;;;21.46;80.92;99153.23;1806593;77;21045;-78
2022/08/17 05:43:16;;;;;;;12.63;8.73;;;;;;;21.48;81.40;99157.33;1801670;77;21034;-76
2022/08/17 05:46:03;;;;;;;11.48;8.20;;;;;;;21.58;81.17;99149.86;1810919;77;21042;-78
2022/08/17 05:48:43;;;;;;;11.40;8.30;;;;;;;21.69;80.91;99152.95;1801455;77;21540;-80
2022/08/17 05:51:54;;;;;;;17.87;9.45;;;;;;;21.73;80.62;99157.28;1802126;77;21058;-74
2022/08/17 05:54:55;;;;;;;13.03;9.50;;;;;;;21.78;80.45;99162.75;1782849;79;21064;-79
2022/08/17 05:57:47;;;;;;;10.08;8.38;;;;;;;21.82;80.41;99161.16;1778600;79;21017;-77
2022/08/17 06:00:24;;;;;;;13.83;7.75;;;;;;;21.93;79.63;99162.08;1766693;79;21101;-81
2022/08/17 06:03:13;;;;;;;11.10;8.25;;;;;;;21.96;79.03;99167.80;1808328;77;21605;-76
2022/08/17 06:05:45;;;;;;;12.98;8.55;;;;;;;21.93;79.06;99163.44;1807625;77;21054;-78
2022/08/17 06:08:59;;;;;;;11.87;8.67;;;;;;;21.92;79.27;99163.98;1803127;77;21096;-77
2022/08/17 06:11:37;;;;;;;11.60;7.58;;;;;;;21.96;78.70;99169.15;1810049;77;21557;-79
2022/08/17 06:14:31;;;;;;;8.55;7.62;;;;;;;22.09;78.68;99169.24;1786675;77;21038;-79
2022/08/17 06:17:03;;;;;;;;;;;;;;;22.21;78.39;99169.06;1786072;79;21645;-79
2022/08/17 06:19:40;;;;;;;;;;;;;;;22.26;77.98;99166.98;1806226;77;20209;-78
2022/08/17 06:22:07;;;;;;;13.85;8.43;;;;;;;22.29;78.36;99169.16;1781465;77;20504;-79
2022/08/17 06:24:51;;;;;;;13.70;7.95;;;;;;;22.34;78.14;99167.85;1797597;78;20995;-79
2022/08/17 06:27:36;;;;;;;11.53;7.75;;;;;;;22.42;78.16;99171.97;1798910;77;21042;-78
2022/08/17 06:30:13;;;;;;;9.20;7.47;;;;;;;22.57;78.21;99170.17;1800682;77;21973;-80
2022/08/17 06:32:44;;;;;;;11.65;8.25;;;;;;;22.75;77.47;99170.81;1788360;77;21097;-78
2022/08/17 06:35:13;;;;;;;12.65;8.20;;;;;;;22.83;76.66;99173.56;1762532;79;21042;-79
2022/08/17 06:38:08;;;;;;;12.63;8.08;;;;;;;22.88;75.52;99170.35;1784263;77;21034;-78
2022/08/17 06:40:58;;;;;;;;;;;;;;;22.94;75.34;99168.48;1786609;77;21070;-79
2022/08/17 06:43:58;;;;;;;11.45;7.83;;;;;;;23.00;75.27;99172.84;1784205;77;20779;-79
2022/08/17 06:46:34;;;;;;;13.58;7.65;;;;;;;23.06;75.29;99171.00;1784391;77;21050;-76
2022/08/17 06:49:20;;;;;;;10.60;8.13;;;;;;;23.13;74.75;99167.52;1800472;77;21006;-77
2022/08/17 06:52:01;;;;;;;14.13;7.92;;;;;;;23.19;74.32;99171.88;1814537;77;21053;-75
2022/08/17 06:54:45;;;;;;;16.82;7.78;;;;;;;23.34;73.42;99171.93;1784807;77;21081;-76
2022/08/17 06:57:23;;;;;;;11.25;7.87;;;;;;;23.47;72.79;99168.44;1806075;77;21196;-77
2022/08/17 06:59:58;;;;;;;14.20;7.97;;;;;;;23.52;72.36;99172.52;1814129;79;21034;-77
2022/08/17 07:02:51;;;;;;;9.28;7.80;;;;;;;23.55;72.34;99172.81;1804283;77;21024;-78
2022/08/17 07:05:20;;;;;;;11.28;7.87;;;;;;;23.60;72.41;99169.28;1758116;79;21562;-78
2022/08/17 07:08:01;;;;;;;9.28;7.97;;;;;;;23.66;71.81;99165.52;1732545;81;21028;-78
2022/08/17 07:10:35;;;;;;;9.63;8.03;;;;;;;23.69;72.15;99164.97;1799199;76;21161;-78
2022/08/17 07:13:34;;;;;;;11.85;7.58;;;;;;;23.74;72.14;99169.61;1796398;76;21037;-77
2022/08/17 07:16:14;;;;;;;9.68;7.42;;;;;;;23.79;71.88;99171.53;1818788;76;21061;-79
2022/08/17 07:18:42;;;;;;;9.90;7.15;;;;;;;23.82;71.49;99169.65;1810737;76;21597;-78
2022/08/17 07:21:20;;;;;;;13.43;7.25;;;;;;;23.88;70.99;99165.86;1806552;76;21096;-78
2022/08/17 07:24:14;;;;;;;12.37;6.95;;;;;;;23.92;70.43;99168.30;1797088;79;21125;-78
2022/08/17 07:26:40;;;;;;;;;;;;;;;23.94;70.22;99167.48;1831940;77;21022;-78
2022/08/17 07:29:07;;;;;;;9.38;7.17;;;;;;;24.00;70.34;99165.59;1823834;76;20235;-77
2022/08/17 07:31:33;;;;;;;10.32;7.60;;;;;;;24.04;69.94;99170.19;1798972;76;21017;-78
2022/08/17 07:34:07;;;;;;;10.38;7.20;;;;;;;24.08;69.61;99164.48;1822513;76;20970;-78
2022/08/17 07:36:34;;;;;;;8.33;7.50;;;;;;;24.14;69.83;99163.95;1846095;76;21271;-78
2022/08/17 07:39:01;;;;;;;8.53;7.67;;;;;;;24.21;69.82;99169.93;1822744;76;21040;-81
2022/08/17 07:41:31;;;;;;;10.85;7.42;;;;;;;24.29;69.97;99166.66;1765024;78;21077;-79
2022/08/17 07:43:57;;;;;;;11.95;7.37;;;;;;;24.37;69.51;99162.58;1779105;78;21039;-75
2022/08/17 07:49:17;;;;;;;9.85;6.95;;;;;;;24.52;68.65;99162.59;1784099;77;21173;-77
2022/08/17 07:51:49;;;;;;;9.33;7.60;;;;;;;24.64;67.78;99173.71;1773623;78;21043;-78
2022/08/17 07:54:21;;;;;;;7.72;7.03;;;;;;;24.70;66.71;99172.05;1782390;77;21084;-77
2022/08/17 07:57:04;;;;;;;11.03;7.62;;;;;;;24.72;66.48;99173.98;1771213;78;21110;-77
2022/08/17 07:59:34;;;;;;;10.18;7.15;;;;;;;24.74;66.98;99168.25;1800102;77;21063;-77
2022/08/17 08:02:25;;;;;;;12.82;7.53;;;;;;;24.76;67.43;99165.26;1775590;79;21805;-78
2022/08/17 08:05:12;;;;;;;13.85;8.95;;;;;;;24.83;67.46;99169.87;1780395;79;21023;-78
2022/08/17 08:08:00;;;;;;;9.15;7.70;;;;;;;24.90;67.38;99169.84;1794655;77;21015;-76
2022/08/17 08:10:34;;;;;;;14.00;8.63;;;;;;;24.97;66.82;99166.82;1764523;80;21018;-76
2022/08/17 08:13:16;;;;;;;13.83;8.08;;;;;;;24.99;67.42;99163.83;1784395;80;21030;-78
2022/08/17 08:15:47;;;;;;;11.30;7.92;;;;;;;25.03;67.65;99164.34;1771268;78;21901;-78
2022/08/17 08:18:29;;;;;;;15.00;8.35;;;;;;;25.08;67.33;99160.81;1778159;78;20983;-78
2022/08/17 08:21:08;;;;;;;11.10;8.28;;;;;;;25.11;67.42;99158.88;1778457;78;21044;-77
2022/08/17 08:23:52;;;;;;;12.60;8.00;;;;;;;25.15;67.83;99162.70;1782024;78;21056;-78
2022/08/17 08:26:54;;;;;;;14.35;8.83;;;;;;;25.23;68.12;99160.78;1744554;80;21069;-78
2022/08/17 08:29:52;;;;;;;14.68;8.13;;;;;;;25.31;67.62;99164.82;1778989;79;21165;-78
2022/08/17 08:32:45;;;;;;;9.83;8.28;;;;;;;25.44;68.10;99169.65;1773465;78;21100;-78
2022/08/17 08:35:31;;;;;;;8.70;7.80;;;;;;;25.59;68.13;99163.84;1783209;78;21052;-76
2022/08/17 08:38:44;;;;;;;9.98;8.18;;;;;;;25.74;68.49;99162.94;1793848;78;21044;-75
2022/08/17 08:41:31;;;;;;;12.13;8.35;;;;;;;25.88;67.96;99165.28;1779053;79;21069;-75
2022/08/17 08:44:50;;;;;;;10.68;8.38;;;;;;;26.03;68.02;99166.55;1777903;80;21252;-75
2022/08/17 08:47:31;;;;;;;9.43;8.33;;;;;;;26.17;67.89;99167.27;1775637;79;21683;-75
2022/08/17 08:50:32;;;;;;;8.98;8.08;;;;;;;26.24;66.84;99159.59;1778393;79;21569;-77
2022/08/17 08:53:37;;;;;;;11.85;8.33;;;;;;;26.29;67.04;99159.55;1763113;80;21077;-74
2022/08/17 08:56:12;;;;;;;11.25;7.60;;;;;;;26.41;67.54;99152.36;1770762;79;20997;-76
2022/08/17 08:59:06;;;;;;;12.58;9.30;;;;;;;26.60;68.04;99156.02;1774869;79;21098;-76
2022/08/17 09:02:17;;;;;;;18.62;8.45;;;;;;;26.75;66.27;99149.56;1772589;79;21009;-75
2022/08/17 09:05:26;;;;;;;17.62;8.65;;;;;;;26.87;66.04;99151.91;1776764;79;21040;-78
2022/08/17 09:08:16;;;;;;;13.98;8.80;;;;;;;26.96;65.56;99165.69;1778066;79;21057;-77
2022/08/17 09:11:22;;;;;;;13.08;8.45;;;;;;;27.10;64.82;99166.62;1779240;79;21129;-76
2022/08/17 09:14:22;;;;;;;12.65;7.87;;;;;;;27.31;64.75;99169.11;1769074;80;21720;-77
2022/08/17 09:17:14;;;;;;;15.65;8.85;;;;;;;27.59;64.09;99164.08;1766556;79;21120;-77
2022/08/17 09:19:54;;;;;;;14.18;8.83;;;;;;;28.31;61.40;99161.61;1734556;80;21045;-77
2022/08/17 09:22:31;;;;;;;10.23;8.38;;;;;;;28.31;61.40;99161.61;1773113;80;21659;-77
2022/08/17 09:25:20;;;;;;;12.78;9.38;;;;;;;28.62;61.90;99163.25;1770039;79;21521;-76
2022/08/17 09:28:06;;;;;;;10.72;8.93;;;;;;;28.90;60.52;99159.19;1764023;79;21112;-75
2022/08/17 09:30:48;;;;;;;11.78;8.65;;;;;;;29.12;59.77;99151.65;1771870;79;20987;-76
2022/08/17 09:33:21;;;;;;;12.43;8.83;;;;;;;29.27;59.01;99154.63;1764047;79;21053;-78
2022/08/17 09:35:55;;;;;;;12.82;9.08;;;;;;;29.45;58.91;99153.42;1773291;80;21085;-77
2022/08/17 09:38:53;;;;;;;10.10;7.87;;;;;;;29.71;58.74;99155.83;1772310;79;21524;-74
2022/08/17 09:41:49;;;;;;;12.28;9.63;;;;;;;30.10;60.09;99148.09;1751999;80;21307;-77
2022/08/17 09:44:24;;;;;;;12.25;9.63;;;;;;;30.70;57.97;99147.63;1651608;85;21078;-76
2022/08/17 09:47:28;;;;;;;12.13;8.83;;;;;;;31.29;56.27;99140.48;1694600;83;21260;-78
2022/08/17 09:50:12;;;;;;;8.60;7.80;;;;;;;31.82;55.01;99150.14;1696527;83;21063;-75
2022/08/17 09:55:26;;;;;;;9.20;7.45;;;;;;;32.93;53.70;99134.24;1867921;75;22576;-75
2022/08/17 09:58:22;;;;;;;13.08;8.95;;;;;;;33.26;52.08;99138.54;1818783;78;21050;-74
2022/08/17 10:00:55;;;;;;;12.88;8.70;;;;;;;33.67;51.71;99139.70;1817115;77;21104;-74
2022/08/17 10:03:37;;;;;;;11.90;8.23;;;;;;;34.13;50.59;99130.67;1819018;77;21121;-73
2022/08/17 10:06:15;;;;;;;;;;;;;;;34.40;48.41;99135.61;1828788;77;21051;-74
2022/08/17 10:09:06;;;;;;;13.55;9.63;;;;;;;34.59;48.71;99135.03;1830388;77;20167;-75
2022/08/17 10:14:59;;;;;;;13.32;9.78;;;;;;;35.11;47.65;99131.38;1814417;77;21700;-74
2022/08/17 10:18:07;;;;;;;12.55;8.23;;;;;;;35.38;46.11;99127.89;1816674;77;21051;-73
2022/08/17 10:26:40;;;;;;;13.32;8.43;;;;;;;36.18;45.04;99124.86;1815003;77;21704;-75
2022/08/17 10:29:16;;;;;;;14.13;8.68;;;;;;;36.50;44.39;99121.30;1839094;77;21173;-75
2022/08/17 10:32:02;;;;;;;15.80;8.43;;;;;;;36.72;43.98;99116.55;1817958;77;21016;-74
2022/08/17 10:35:06;;;;;;;13.68;8.78;;;;;;;37.07;43.40;99112.17;1818632;77;21063;-71
2022/08/17 10:37:51;;;;;;;15.20;8.98;;;;;;;37.44;42.70;99113.22;1797624;77;21185;-75
2022/08/17 10:40:35;;;;;;;12.35;9.05;;;;;;;37.64;42.60;99112.06;1825847;77;21032;-75
2022/08/17 10:43:43;;;;;;;14.45;9.48;;;;;;;37.84;42.02;99112.05;1817156;78;21216;-75
2022/08/17 10:46:51;;;;;;;16.10;10.13;;;;;;;38.01;41.60;99113.55;1809955;77;21005;-76
2022/08/17 10:49:23;;;;;;;17.20;10.20;;;;;;;37.93;41.09;99115.39;1819594;77;21007;-76
2022/08/17 10:51:54;;;;;;;13.72;9.00;;;;;;;37.80;41.31;99116.13;1803508;77;21575;-76
2022/08/17 10:54:38;;;;;;;14.30;9.55;;;;;;;37.90;41.03;99120.27;1839419;76;21028;-75
2022/08/17 10:57:33;;;;;;;14.85;9.90;;;;;;;37.89;41.24;99117.30;1810247;77;21203;-74
2022/08/17 11:00:28;;;;;;;17.80;10.13;;;;;;;38.02;41.65;99109.63;1820017;77;21025;-73
2022/08/17 11:02:56;;;;;;;23.67;10.60;;;;;;;38.41;41.49;99110.33;1813569;78;21572;-77
2022/08/17 11:05:54;;;;;;;18.48;10.15;;;;;;;38.78;40.26;99111.14;1820869;78;21060;-76
2022/08/17 11:08:36;;;;;;;17.52;9.88;;;;;;;38.86;39.20;99108.68;1807834;77;21040;-77
2022/08/17 11:11:11;;;;;;;16.40;10.23;;;;;;;38.65;39.20;99116.69;1824992;77;21210;-76
2022/08/17 11:14:05;;;;;;;16.67;9.80;;;;;;;38.41;40.14;99110.92;1758542;81;20996;-76
2022/08/17 11:16:45;;;;;;;16.73;10.82;;;;;;;38.45;40.02;99101.48;1732304;80;21105;-73
2022/08/17 11:19:45;;;;;;;15.93;9.83;;;;;;;38.44;39.64;99099.07;1780447;79;21240;-76
2022/08/17 11:22:29;;;;;;;18.50;9.53;;;;;;;38.19;39.59;99100.86;1776201;79;21077;-76
2022/08/17 11:24:57;;;;;;;15.72;9.95;;;;;;;38.13;40.72;99097.59;1783908;80;21855;-74
2022/08/17 11:27:30;;;;;;;15.20;9.73;;;;;;;38.37;40.14;99091.45;1708016;81;20999;-75
2022/08/17 11:30:01;;;;;;;14.93;8.85;;;;;;;38.66;39.52;99085.00;1787966;79;21354;-76
2022/08/17 11:32:42;;;;;;;12.03;9.73;;;;;;;38.67;39.84;99086.02;1766513;79;21084;-76
2022/08/17 11:35:28;;;;;;;17.42;9.50;;;;;;;38.43;39.71;99087.77;1757523;79;21018;-75
2022/08/17 11:38:24;;;;;;;16.77;9.03;;;;;;;38.07;40.07;99089.33;1774252;80;21232;-76
2022/08/17 11:41:00;;;;;;;16.10;9.88;;;;;;;37.93;40.69;99090.45;1787490;79;21004;-76
2022/08/17 11:43:44;;;;;;;14.28;10.15;;;;;;;37.96;40.62;99088.34;1795083;79;21978;-76
2022/08/17 11:52:35;;;;;;;13.68;8.75;;;;;;;37.94;41.33;99088.70;1775424;79;21784;-77
2022/08/17 11:55:03;;;;;;;13.00;8.70;;;;;;;37.93;41.33;99088.47;1785441;79;21033;-75
2022/08/17 11:57:35;;;;;;;20.55;9.40;;;;;;;37.83;41.64;99084.13;1786744;78;21323;-76
2022/08/17 12:00:11;;;;;;;18.25;9.18;;;;;;;37.77;41.50;99080.27;1769669;78;21025;-76
2022/08/17 12:02:43;;;;;;;13.48;9.23;;;;;;;37.68;41.15;99078.89;1790236;78;21084;-75
2022/08/17 12:05:25;;;;;;;14.30;9.10;;;;;;;37.69;41.18;99072.20;1788869;80;21238;-73
2022/08/17 12:08:17;;;;;;;13.35;8.75;;;;;;;37.62;40.92;99076.20;1789511;80;21623;-74
2022/08/17 12:11:08;;;;;;;16.52;8.78;;;;;;;37.64;42.26;99076.05;1792030;78;21095;-73
2022/08/17 12:13:43;;;;;;;15.65;8.53;;;;;;;37.94;41.11;99079.00;1787744;78;21034;-75
2022/08/17 12:16:16;;;;;;;13.32;9.45;;;;;;;38.34;40.43;99066.65;1787502;78;21033;-72
2022/08/17 12:18:52;;;;;;;12.13;8.40;;;;;;;38.52;39.79;99072.47;1766331;80;21077;-75
2022/08/17 12:21:27;;;;;;;18.23;9.18;;;;;;;38.54;39.24;99065.20;1779609;78;21037;-71
2022/08/17 12:24:13;;;;;;;13.70;8.70;;;;;;;38.30;39.81;99069.92;1780387;80;21072;-74
2022/08/17 12:26:42;;;;;;;18.05;8.20;;;;;;;38.31;39.22;99054.10;1795684;78;21065;-75
2022/08/17 12:29:14;;;;;;;12.78;8.80;;;;;;;38.50;39.80;99054.02;1788000;78;21002;-75
2022/08/17 12:31:46;;;;;;;10.32;7.95;;;;;;;38.97;38.96;99052.53;1797642;78;21744;-75
2022/08/17 12:34:35;;;;;;;11.88;8.03;;;;;;;39.36;38.60;99044.70;1793473;78;21506;-75
2022/08/17 12:37:06;;;;;;;14.60;8.35;;;;;;;39.59;37.97;99047.38;1788866;78;21041;-76
2022/08/17 12:39:33;;;;;;;13.97;7.70;;;;;;;39.59;37.67;99057.70;1783795;80;21474;-76
2022/08/17 12:41:59;;;;;;;11.75;8.65;;;;;;;39.41;37.49;99063.83;1774356;78;21049;-73
2022/08/17 12:44:34;;;;;;;11.70;7.67;;;;;;;39.23;37.35;99062.80;1743447;80;20986;-75